sensor_id;sensor_type;location;lat;lon;timestamp;P1;durP1;ratioP1;P2;durP2;ratioP2
828;SDS011;396;52.558;13.188;2023-02-28T00:00:08;9.23;;;3.10;;
828;SDS011;396;52.558;13.188;2023-02-28T00:02:36;7.93;;;3.27;;
828;SDS011;396;52.558;13.188;2023-02-28T00:05:03;7.57;;;3.10;;
828;SDS011;396;52.558;13.188;2023-02-28T00:07:31;7.63;;;2.60;;
828;SDS011;396;52.558;13.188;2023-02-28T00:09:58;10.10;;;3.17;;
828;SDS011;396;52.558;13.188;2023-02-28T00:12:25;7.10;;;2.33;;
828;SDS011;396;52.558;13.188;2023-02-28T00:14:53;11.60;;;3.70;;
828;SDS011;396;52.558;13.188;2023-02-28T00:17:19;7.37;;;2.53;;
828;SDS011;396;52.558;13.188;2023-02-28T00:19:47;7.50;;;2.40;;
828;SDS011;396;52.558;13.188;2023-02-28T00:22:14;10.47;;;3.27;;
828;SDS011;396;52.558;13.188;2023-02-28T00:24:41;7.30;;;2.57;;
828;SDS011;396;52.558;13.188;2023-02-28T00:27:08;9.00;;;2.80;;
828;SDS011;396;52.558;13.188;2023-02-28T00:29:34;7.97;;;2.50;;
828;SDS011;396;52.558;13.188;2023-02-28T00:32:03;7.40;;;2.60;;
828;SDS011;396;52.558;13.188;2023-02-28T00:34:30;8.57;;;3.70;;
828;SDS011;396;52.558;13.188;2023-02-28T00:36:57;8.10;;;3.00;;
828;SDS011;396;52.558;13.188;2023-02-28T00:39:24;10.83;;;2.87;;
828;SDS011;396;52.558;13.188;2023-02-28T00:41:50;9.80;;;3.20;;
828;SDS011;396;52.558;13.188;2023-02-28T00:44:17;8.63;;;3.30;;
828;SDS011;396;52.558;13.188;2023-02-28T00:46:46;9.27;;;3.13;;
828;SDS011;396;52.558;13.188;2023-02-28T00:49:14;9.77;;;2.90;;
828;SDS011;396;52.558;13.188;2023-02-28T00:51:41;9.37;;;3.77;;
828;SDS011;396;52.558;13.188;2023-02-28T00:54:08;10.67;;;3.60;;
828;SDS011;396;52.558;13.188;2023-02-28T00:56:34;8.90;;;3.77;;
828;SDS011;396;52.558;13.188;2023-02-28T00:59:01;10.43;;;3.60;;
828;SDS011;396;52.558;13.188;2023-02-28T01:01:27;7.57;;;3.17;;
828;SDS011;396;52.558;13.188;2023-02-28T01:03:54;10.03;;;3.70;;
828;SDS011;396;52.558;13.188;2023-02-28T01:06:22;8.77;;;2.93;;
828;SDS011;396;52.558;13.188;2023-02-28T01:08:48;9.47;;;3.47;;
828;SDS011;396;52.558;13.188;2023-02-28T01:11:15;8.43;;;3.80;;
828;SDS011;396;52.558;13.188;2023-02-28T01:13:44;10.10;;;3.27;;
828;SDS011;396;52.558;13.188;2023-02-28T01:16:12;10.60;;;3.10;;
828;SDS011;396;52.558;13.188;2023-02-28T01:18:39;8.77;;;3.30;;
828;SDS011;396;52.558;13.188;2023-02-28T01:21:07;10.50;;;3.83;;
828;SDS011;396;52.558;13.188;2023-02-28T01:23:36;7.50;;;2.50;;
828;SDS011;396;52.558;13.188;2023-02-28T01:26:04;7.73;;;2.93;;
828;SDS011;396;52.558;13.188;2023-02-28T01:28:31;7.50;;;2.83;;
828;SDS011;396;52.558;13.188;2023-02-28T01:30:58;10.67;;;4.60;;
828;SDS011;396;52.558;13.188;2023-02-28T01:33:24;10.07;;;3.60;;
828;SDS011;396;52.558;13.188;2023-02-28T01:35:57;11.97;;;4.10;;
828;SDS011;396;52.558;13.188;2023-02-28T01:38:24;8.80;;;3.03;;
828;SDS011;396;52.558;13.188;2023-02-28T01:40:51;8.33;;;2.80;;
828;SDS011;396;52.558;13.188;2023-02-28T01:43:22;8.10;;;2.73;;
828;SDS011;396;52.558;13.188;2023-02-28T01:45:51;16.57;;;3.50;;
828;SDS011;396;52.558;13.188;2023-02-28T01:48:18;7.13;;;2.70;;
828;SDS011;396;52.558;13.188;2023-02-28T01:50:47;7.40;;;2.70;;
828;SDS011;396;52.558;13.188;2023-02-28T01:53:16;10.10;;;3.03;;
828;SDS011;396;52.558;13.188;2023-02-28T01:55:46;14.27;;;4.20;;
828;SDS011;396;52.558;13.188;2023-02-28T01:58:18;9.37;;;2.70;;
828;SDS011;396;52.558;13.188;2023-02-28T02:00:45;7.20;;;2.70;;
828;SDS011;396;52.558;13.188;2023-02-28T02:03:12;7.10;;;2.70;;
828;SDS011;396;52.558;13.188;2023-02-28T02:05:40;7.50;;;3.17;;
828;SDS011;396;52.558;13.188;2023-02-28T02:08:13;7.07;;;2.67;;
828;SDS011;396;52.558;13.188;2023-02-28T02:10:44;8.73;;;3.47;;
828;SDS011;396;52.558;13.188;2023-02-28T02:13:19;6.13;;;2.53;;
828;SDS011;396;52.558;13.188;2023-02-28T02:15:57;8.33;;;3.00;;
828;SDS011;396;52.558;13.188;2023-02-28T02:18:31;6.90;;;2.50;;
828;SDS011;396;52.558;13.188;2023-02-28T02:21:11;13.50;;;3.20;;
828;SDS011;396;52.558;13.188;2023-02-28T02:24:03;9.00;;;3.13;;
828;SDS011;396;52.558;13.188;2023-02-28T02:35:56;8.70;;;3.77;;
828;SDS011;396;52.558;13.188;2023-02-28T02:38:31;9.10;;;3.10;;
828;SDS011;396;52.558;13.188;2023-02-28T02:41:04;7.77;;;3.17;;
828;SDS011;396;52.558;13.188;2023-02-28T02:43:39;10.30;;;3.57;;
828;SDS011;396;52.558;13.188;2023-02-28T02:46:12;8.27;;;2.87;;
828;SDS011;396;52.558;13.188;2023-02-28T02:48:42;8.63;;;3.03;;
828;SDS011;396;52.558;13.188;2023-02-28T02:51:13;8.63;;;2.80;;
828;SDS011;396;52.558;13.188;2023-02-28T02:53:45;7.30;;;2.77;;
828;SDS011;396;52.558;13.188;2023-02-28T02:56:16;9.67;;;2.93;;
828;SDS011;396;52.558;13.188;2023-02-28T02:58:45;6.30;;;2.50;;
828;SDS011;396;52.558;13.188;2023-02-28T03:01:16;7.60;;;3.20;;
828;SDS011;396;52.558;13.188;2023-02-28T03:03:53;7.77;;;3.20;;
828;SDS011;396;52.558;13.188;2023-02-28T03:06:23;9.30;;;3.00;;
828;SDS011;396;52.558;13.188;2023-02-28T03:08:49;6.50;;;2.13;;
828;SDS011;396;52.558;13.188;2023-02-28T03:11:16;10.57;;;3.00;;
828;SDS011;396;52.558;13.188;2023-02-28T03:13:49;6.97;;;2.67;;
828;SDS011;396;52.558;13.188;2023-02-28T03:16:28;8.17;;;3.20;;
828;SDS011;396;52.558;13.188;2023-02-28T03:22:02;7.30;;;2.83;;
828;SDS011;396;52.558;13.188;2023-02-28T03:24:40;9.60;;;3.30;;
828;SDS011;396;52.558;13.188;2023-02-28T03:27:15;8.97;;;2.93;;
828;SDS011;396;52.558;13.188;2023-02-28T03:29:47;9.27;;;2.77;;
828;SDS011;396;52.558;13.188;2023-02-28T03:32:21;7.57;;;3.00;;
828;SDS011;396;52.558;13.188;2023-02-28T03:34:53;7.73;;;2.70;;
828;SDS011;396;52.558;13.188;2023-02-28T03:37:26;8.07;;;3.10;;
828;SDS011;396;52.558;13.188;2023-02-28T03:39:57;7.30;;;2.00;;
828;SDS011;396;52.558;13.188;2023-02-28T03:42:27;9.30;;;2.80;;
828;SDS011;396;52.558;13.188;2023-02-28T03:44:58;10.67;;;2.73;;
828;SDS011;396;52.558;13.188;2023-02-28T03:47:29;7.40;;;2.70;;
828;SDS011;396;52.558;13.188;2023-02-28T03:50:00;12.17;;;3.10;;
828;SDS011;396;52.558;13.188;2023-02-28T03:52:34;8.40;;;3.07;;
828;SDS011;396;52.558;13.188;2023-02-28T03:55:05;6.90;;;3.00;;
828;SDS011;396;52.558;13.188;2023-02-28T03:57:36;8.10;;;2.80;;
828;SDS011;396;52.558;13.188;2023-02-28T04:00:07;6.07;;;2.43;;
828;SDS011;396;52.558;13.188;2023-02-28T04:02:39;8.40;;;3.00;;
828;SDS011;396;52.558;13.188;2023-02-28T04:05:06;7.53;;;2.60;;
828;SDS011;396;52.558;13.188;2023-02-28T04:07:35;8.67;;;2.87;;
828;SDS011;396;52.558;13.188;2023-02-28T04:10:02;6.60;;;2.73;;
828;SDS011;396;52.558;13.188;2023-02-28T04:12:29;6.80;;;3.10;;
828;SDS011;396;52.558;13.188;2023-02-28T04:14:56;8.33;;;2.60;;
828;SDS011;396;52.558;13.188;2023-02-28T04:17:23;11.53;;;3.47;;
828;SDS011;396;52.558;13.188;2023-02-28T04:19:49;12.73;;;3.07;;
828;SDS011;396;52.558;13.188;2023-02-28T04:22:16;10.03;;;3.40;;
828;SDS011;396;52.558;13.188;2023-02-28T04:24:44;7.03;;;2.67;;
828;SDS011;396;52.558;13.188;2023-02-28T04:27:11;7.13;;;2.50;;
828;SDS011;396;52.558;13.188;2023-02-28T04:29:38;9.27;;;2.80;;
828;SDS011;396;52.558;13.188;2023-02-28T04:32:04;7.07;;;3.23;;
828;SDS011;396;52.558;13.188;2023-02-28T04:34:31;8.67;;;3.30;;
828;SDS011;396;52.558;13.188;2023-02-28T04:36:58;8.10;;;2.80;;
828;SDS011;396;52.558;13.188;2023-02-28T04:39:25;7.57;;;2.60;;
828;SDS011;396;52.558;13.188;2023-02-28T04:41:53;7.07;;;2.33;;
828;SDS011;396;52.558;13.188;2023-02-28T04:44:20;10.20;;;3.17;;
828;SDS011;396;52.558;13.188;2023-02-28T04:46:48;7.50;;;2.73;;
828;SDS011;396;52.558;13.188;2023-02-28T04:49:15;8.80;;;3.00;;
828;SDS011;396;52.558;13.188;2023-02-28T04:51:42;7.73;;;2.97;;
828;SDS011;396;52.558;13.188;2023-02-28T04:54:08;10.43;;;3.23;;
828;SDS011;396;52.558;13.188;2023-02-28T04:56:35;7.20;;;2.80;;
828;SDS011;396;52.558;13.188;2023-02-28T04:59:03;8.93;;;2.80;;
828;SDS011;396;52.558;13.188;2023-02-28T05:01:30;7.57;;;2.60;;
828;SDS011;396;52.558;13.188;2023-02-28T05:03:59;9.30;;;3.40;;
828;SDS011;396;52.558;13.188;2023-02-28T05:06:27;8.03;;;2.97;;
828;SDS011;396;52.558;13.188;2023-02-28T05:08:55;7.73;;;2.90;;
828;SDS011;396;52.558;13.188;2023-02-28T05:11:23;7.37;;;2.83;;
828;SDS011;396;52.558;13.188;2023-02-28T05:13:51;7.47;;;2.57;;
828;SDS011;396;52.558;13.188;2023-02-28T05:16:20;9.33;;;3.27;;
828;SDS011;396;52.558;13.188;2023-02-28T05:18:46;6.90;;;2.87;;
828;SDS011;396;52.558;13.188;2023-02-28T05:21:23;8.37;;;3.10;;
828;SDS011;396;52.558;13.188;2023-02-28T05:23:51;8.40;;;3.10;;
828;SDS011;396;52.558;13.188;2023-02-28T05:26:18;9.33;;;3.30;;
828;SDS011;396;52.558;13.188;2023-02-28T05:28:45;9.67;;;3.00;;
828;SDS011;396;52.558;13.188;2023-02-28T05:31:12;9.47;;;2.80;;
828;SDS011;396;52.558;13.188;2023-02-28T05:33:40;7.67;;;3.03;;
828;SDS011;396;52.558;13.188;2023-02-28T05:36:07;7.07;;;3.30;;
828;SDS011;396;52.558;13.188;2023-02-28T05:38:33;8.93;;;2.40;;
828;SDS011;396;52.558;13.188;2023-02-28T05:41:04;9.00;;;3.10;;
828;SDS011;396;52.558;13.188;2023-02-28T05:43:31;13.60;;;3.43;;
828;SDS011;396;52.558;13.188;2023-02-28T05:45:57;8.53;;;3.70;;
828;SDS011;396;52.558;13.188;2023-02-28T05:48:24;9.70;;;3.83;;
828;SDS011;396;52.558;13.188;2023-02-28T05:50:53;7.80;;;3.07;;
828;SDS011;396;52.558;13.188;2023-02-28T05:53:20;7.80;;;3.50;;
828;SDS011;396;52.558;13.188;2023-02-28T05:55:46;8.67;;;3.67;;
828;SDS011;396;52.558;13.188;2023-02-28T05:58:13;7.80;;;3.27;;
828;SDS011;396;52.558;13.188;2023-02-28T06:00:40;11.10;;;3.60;;
828;SDS011;396;52.558;13.188;2023-02-28T06:03:06;9.27;;;3.53;;
828;SDS011;396;52.558;13.188;2023-02-28T06:05:33;9.60;;;3.70;;
828;SDS011;396;52.558;13.188;2023-02-28T06:08:01;8.03;;;3.00;;
828;SDS011;396;52.558;13.188;2023-02-28T06:10:27;6.77;;;2.77;;
828;SDS011;396;52.558;13.188;2023-02-28T06:12:54;9.97;;;2.80;;
828;SDS011;396;52.558;13.188;2023-02-28T06:15:20;13.73;;;2.87;;
828;SDS011;396;52.558;13.188;2023-02-28T06:17:47;8.60;;;3.03;;
828;SDS011;396;52.558;13.188;2023-02-28T06:20:14;11.00;;;3.63;;
828;SDS011;396;52.558;13.188;2023-02-28T06:22:40;7.87;;;3.27;;
828;SDS011;396;52.558;13.188;2023-02-28T06:25:10;11.37;;;3.90;;
828;SDS011;396;52.558;13.188;2023-02-28T06:27:37;10.13;;;3.87;;
828;SDS011;396;52.558;13.188;2023-02-28T06:30:04;8.60;;;3.60;;
828;SDS011;396;52.558;13.188;2023-02-28T06:32:31;10.17;;;2.70;;
828;SDS011;396;52.558;13.188;2023-02-28T06:34:57;12.40;;;3.53;;
828;SDS011;396;52.558;13.188;2023-02-28T06:37:24;10.43;;;3.70;;
828;SDS011;396;52.558;13.188;2023-02-28T06:39:52;9.40;;;3.60;;
828;SDS011;396;52.558;13.188;2023-02-28T06:42:22;7.90;;;2.70;;
828;SDS011;396;52.558;13.188;2023-02-28T06:44:49;9.53;;;3.60;;
828;SDS011;396;52.558;13.188;2023-02-28T06:47:16;17.90;;;4.27;;
828;SDS011;396;52.558;13.188;2023-02-28T06:49:43;7.93;;;2.90;;
828;SDS011;396;52.558;13.188;2023-02-28T06:52:10;11.27;;;3.83;;
828;SDS011;396;52.558;13.188;2023-02-28T06:54:37;8.20;;;3.07;;
828;SDS011;396;52.558;13.188;2023-02-28T06:57:03;8.57;;;3.07;;
828;SDS011;396;52.558;13.188;2023-02-28T06:59:31;8.90;;;2.87;;
828;SDS011;396;52.558;13.188;2023-02-28T07:01:58;9.77;;;3.07;;
828;SDS011;396;52.558;13.188;2023-02-28T07:04:25;10.93;;;3.67;;
828;SDS011;396;52.558;13.188;2023-02-28T07:06:52;12.73;;;3.73;;
828;SDS011;396;52.558;13.188;2023-02-28T07:09:21;7.67;;;3.67;;
828;SDS011;396;52.558;13.188;2023-02-28T07:11:48;11.60;;;3.50;;
828;SDS011;396;52.558;13.188;2023-02-28T07:14:14;7.90;;;3.60;;
828;SDS011;396;52.558;13.188;2023-02-28T07:16:43;9.60;;;3.60;;
828;SDS011;396;52.558;13.188;2023-02-28T07:19:10;10.80;;;3.37;;
828;SDS011;396;52.558;13.188;2023-02-28T07:21:37;11.70;;;3.73;;
828;SDS011;396;52.558;13.188;2023-02-28T07:24:03;12.13;;;3.40;;
828;SDS011;396;52.558;13.188;2023-02-28T07:26:30;13.90;;;4.80;;
828;SDS011;396;52.558;13.188;2023-02-28T07:28:59;9.77;;;4.50;;
828;SDS011;396;52.558;13.188;2023-02-28T07:31:26;10.57;;;4.20;;
828;SDS011;396;52.558;13.188;2023-02-28T07:33:54;14.93;;;3.90;;
828;SDS011;396;52.558;13.188;2023-02-28T07:36:21;9.80;;;4.27;;
828;SDS011;396;52.558;13.188;2023-02-28T07:38:48;15.00;;;5.27;;
828;SDS011;396;52.558;13.188;2023-02-28T07:41:15;14.57;;;4.13;;
828;SDS011;396;52.558;13.188;2023-02-28T07:43:42;10.20;;;4.07;;
828;SDS011;396;52.558;13.188;2023-02-28T07:46:11;12.47;;;5.27;;
828;SDS011;396;52.558;13.188;2023-02-28T07:48:40;10.10;;;4.40;;
828;SDS011;396;52.558;13.188;2023-02-28T07:51:08;9.20;;;4.00;;
828;SDS011;396;52.558;13.188;2023-02-28T07:53:35;13.43;;;4.83;;
828;SDS011;396;52.558;13.188;2023-02-28T07:56:01;9.40;;;4.60;;
828;SDS011;396;52.558;13.188;2023-02-28T07:58:29;10.23;;;3.97;;
828;SDS011;396;52.558;13.188;2023-02-28T08:00:57;15.30;;;4.43;;
828;SDS011;396;52.558;13.188;2023-02-28T08:03:23;12.30;;;4.80;;
828;SDS011;396;52.558;13.188;2023-02-28T08:05:50;17.10;;;5.77;;
828;SDS011;396;52.558;13.188;2023-02-28T08:08:19;9.23;;;4.17;;
828;SDS011;396;52.558;13.188;2023-02-28T08:10:46;10.50;;;4.83;;
828;SDS011;396;52.558;13.188;2023-02-28T08:13:12;13.40;;;5.17;;
828;SDS011;396;52.558;13.188;2023-02-28T08:15:40;12.73;;;5.47;;
828;SDS011;396;52.558;13.188;2023-02-28T08:18:07;10.50;;;4.93;;
828;SDS011;396;52.558;13.188;2023-02-28T08:20:34;12.83;;;5.20;;
828;SDS011;396;52.558;13.188;2023-02-28T08:23:00;11.43;;;5.10;;
828;SDS011;396;52.558;13.188;2023-02-28T08:25:28;12.53;;;4.90;;
828;SDS011;396;52.558;13.188;2023-02-28T08:27:55;13.30;;;5.30;;
828;SDS011;396;52.558;13.188;2023-02-28T08:30:22;21.87;;;5.80;;
828;SDS011;396;52.558;13.188;2023-02-28T08:32:48;13.80;;;5.57;;
828;SDS011;396;52.558;13.188;2023-02-28T08:35:15;10.53;;;4.17;;
828;SDS011;396;52.558;13.188;2023-02-28T08:37:42;18.90;;;5.93;;
828;SDS011;396;52.558;13.188;2023-02-28T08:40:09;13.90;;;6.00;;
828;SDS011;396;52.558;13.188;2023-02-28T08:42:39;13.70;;;6.57;;
828;SDS011;396;52.558;13.188;2023-02-28T08:45:06;16.60;;;5.43;;
828;SDS011;396;52.558;13.188;2023-02-28T08:47:33;10.97;;;4.50;;
828;SDS011;396;52.558;13.188;2023-02-28T08:50:00;11.43;;;4.67;;
828;SDS011;396;52.558;13.188;2023-02-28T08:52:26;11.60;;;4.70;;
828;SDS011;396;52.558;13.188;2023-02-28T08:54:53;12.70;;;4.33;;
828;SDS011;396;52.558;13.188;2023-02-28T08:57:19;10.67;;;4.37;;
828;SDS011;396;52.558;13.188;2023-02-28T08:59:47;9.80;;;3.70;;
828;SDS011;396;52.558;13.188;2023-02-28T09:02:14;11.20;;;4.20;;
828;SDS011;396;52.558;13.188;2023-02-28T09:04:41;10.17;;;3.50;;
828;SDS011;396;52.558;13.188;2023-02-28T09:07:10;9.37;;;3.53;;
828;SDS011;396;52.558;13.188;2023-02-28T09:09:37;9.13;;;2.43;;
828;SDS011;396;52.558;13.188;2023-02-28T09:12:19;6.90;;;2.53;;
828;SDS011;396;52.558;13.188;2023-02-28T09:14:45;7.10;;;2.40;;
828;SDS011;396;52.558;13.188;2023-02-28T09:17:13;6.30;;;1.67;;
828;SDS011;396;52.558;13.188;2023-02-28T09:19:40;6.40;;;1.80;;
828;SDS011;396;52.558;13.188;2023-02-28T09:22:07;5.40;;;1.27;;
828;SDS011;396;52.558;13.188;2023-02-28T09:24:35;11.40;;;1.47;;
828;SDS011;396;52.558;13.188;2023-02-28T09:27:02;5.47;;;1.47;;
828;SDS011;396;52.558;13.188;2023-02-28T09:29:28;7.23;;;1.60;;
828;SDS011;396;52.558;13.188;2023-02-28T09:31:55;9.20;;;2.13;;
828;SDS011;396;52.558;13.188;2023-02-28T09:34:24;6.77;;;2.50;;
828;SDS011;396;52.558;13.188;2023-02-28T09:36:52;7.73;;;2.07;;
828;SDS011;396;52.558;13.188;2023-02-28T09:39:20;6.53;;;2.13;;
828;SDS011;396;52.558;13.188;2023-02-28T09:41:47;6.67;;;2.00;;
828;SDS011;396;52.558;13.188;2023-02-28T09:44:19;7.67;;;1.70;;
828;SDS011;396;52.558;13.188;2023-02-28T09:46:54;6.93;;;2.10;;
828;SDS011;396;52.558;13.188;2023-02-28T09:49:30;8.30;;;2.20;;
828;SDS011;396;52.558;13.188;2023-02-28T09:52:03;6.20;;;1.77;;
828;SDS011;396;52.558;13.188;2023-02-28T09:54:34;7.23;;;2.27;;
828;SDS011;396;52.558;13.188;2023-02-28T09:57:04;8.27;;;2.70;;
828;SDS011;396;52.558;13.188;2023-02-28T10:05:26;7.13;;;2.27;;
828;SDS011;396;52.558;13.188;2023-02-28T10:08:00;6.37;;;2.23;;
828;SDS011;396;52.558;13.188;2023-02-28T10:10:34;6.80;;;1.90;;
828;SDS011;396;52.558;13.188;2023-02-28T10:13:06;6.20;;;1.83;;
828;SDS011;396;52.558;13.188;2023-02-28T10:15:41;7.00;;;1.40;;
828;SDS011;396;52.558;13.188;2023-02-28T10:18:09;8.30;;;2.10;;
828;SDS011;396;52.558;13.188;2023-02-28T10:20:42;6.03;;;1.60;;
828;SDS011;396;52.558;13.188;2023-02-28T10:23:11;6.33;;;1.70;;
828;SDS011;396;52.558;13.188;2023-02-28T10:25:44;5.97;;;1.30;;
828;SDS011;396;52.558;13.188;2023-02-28T10:28:14;9.03;;;1.87;;
828;SDS011;396;52.558;13.188;2023-02-28T10:30:44;7.40;;;1.63;;
828;SDS011;396;52.558;13.188;2023-02-28T10:33:20;5.40;;;1.33;;
828;SDS011;396;52.558;13.188;2023-02-28T10:35:51;5.33;;;1.37;;
828;SDS011;396;52.558;13.188;2023-02-28T10:38:19;5.93;;;1.37;;
828;SDS011;396;52.558;13.188;2023-02-28T10:40:48;5.50;;;1.53;;
828;SDS011;396;52.558;13.188;2023-02-28T10:43:21;5.90;;;1.60;;
828;SDS011;396;52.558;13.188;2023-02-28T10:45:53;5.17;;;1.37;;
828;SDS011;396;52.558;13.188;2023-02-28T10:48:30;5.80;;;1.50;;
828;SDS011;396;52.558;13.188;2023-02-28T10:51:00;6.70;;;1.67;;
828;SDS011;396;52.558;13.188;2023-02-28T10:53:30;6.77;;;1.17;;
828;SDS011;396;52.558;13.188;2023-02-28T10:56:00;6.70;;;1.20;;
828;SDS011;396;52.558;13.188;2023-02-28T10:58:28;6.10;;;1.63;;
828;SDS011;396;52.558;13.188;2023-02-28T11:00:57;5.30;;;1.07;;
828;SDS011;396;52.558;13.188;2023-02-28T11:03:29;6.40;;;1.67;;
828;SDS011;396;52.558;13.188;2023-02-28T11:05:57;5.20;;;1.10;;
828;SDS011;396;52.558;13.188;2023-02-28T11:08:31;7.90;;;1.80;;
828;SDS011;396;52.558;13.188;2023-02-28T11:10:58;5.57;;;1.23;;
828;SDS011;396;52.558;13.188;2023-02-28T11:13:30;5.47;;;1.40;;
828;SDS011;396;52.558;13.188;2023-02-28T11:15:59;5.67;;;1.37;;
828;SDS011;396;52.558;13.188;2023-02-28T11:18:29;6.60;;;1.60;;
828;SDS011;396;52.558;13.188;2023-02-28T11:20:57;6.10;;;1.57;;
828;SDS011;396;52.558;13.188;2023-02-28T11:23:28;5.50;;;1.33;;
828;SDS011;396;52.558;13.188;2023-02-28T11:25:59;5.13;;;1.40;;
828;SDS011;396;52.558;13.188;2023-02-28T11:28:27;7.63;;;1.40;;
828;SDS011;396;52.558;13.188;2023-02-28T11:31:02;6.40;;;1.77;;
828;SDS011;396;52.558;13.188;2023-02-28T11:33:31;4.80;;;1.00;;
828;SDS011;396;52.558;13.188;2023-02-28T11:36:03;5.20;;;1.10;;
828;SDS011;396;52.558;13.188;2023-02-28T11:38:35;5.30;;;1.27;;
828;SDS011;396;52.558;13.188;2023-02-28T11:41:18;5.23;;;1.10;;
828;SDS011;396;52.558;13.188;2023-02-28T11:44:00;6.83;;;1.47;;
828;SDS011;396;52.558;13.188;2023-02-28T11:46:35;8.60;;;1.47;;
828;SDS011;396;52.558;13.188;2023-02-28T11:49:12;5.73;;;1.23;;
828;SDS011;396;52.558;13.188;2023-02-28T11:51:49;5.40;;;1.10;;
828;SDS011;396;52.558;13.188;2023-02-28T11:54:33;4.93;;;1.07;;
828;SDS011;396;52.558;13.188;2023-02-28T11:57:19;5.07;;;0.90;;
828;SDS011;396;52.558;13.188;2023-02-28T11:59:56;5.77;;;1.30;;
828;SDS011;396;52.558;13.188;2023-02-28T12:02:29;5.53;;;1.13;;
828;SDS011;396;52.558;13.188;2023-02-28T12:05:08;5.43;;;1.33;;
828;SDS011;396;52.558;13.188;2023-02-28T12:07:50;8.43;;;1.90;;
828;SDS011;396;52.558;13.188;2023-02-28T12:10:27;5.63;;;1.13;;
828;SDS011;396;52.558;13.188;2023-02-28T12:13:04;6.30;;;1.50;;
828;SDS011;396;52.558;13.188;2023-02-28T12:15:44;5.33;;;1.33;;
828;SDS011;396;52.558;13.188;2023-02-28T12:18:24;5.17;;;1.07;;
828;SDS011;396;52.558;13.188;2023-02-28T12:21:04;5.00;;;1.13;;
828;SDS011;396;52.558;13.188;2023-02-28T12:23:43;7.33;;;1.87;;
828;SDS011;396;52.558;13.188;2023-02-28T12:26:24;5.30;;;1.30;;
828;SDS011;396;52.558;13.188;2023-02-28T12:29:04;8.57;;;1.53;;
828;SDS011;396;52.558;13.188;2023-02-28T12:31:37;5.20;;;1.17;;
828;SDS011;396;52.558;13.188;2023-02-28T12:34:10;5.00;;;1.20;;
828;SDS011;396;52.558;13.188;2023-02-28T12:36:41;5.87;;;1.20;;
828;SDS011;396;52.558;13.188;2023-02-28T12:39:10;5.03;;;1.27;;
828;SDS011;396;52.558;13.188;2023-02-28T12:41:42;4.87;;;1.00;;
828;SDS011;396;52.558;13.188;2023-02-28T12:44:14;5.63;;;1.60;;
828;SDS011;396;52.558;13.188;2023-02-28T12:46:46;6.40;;;1.90;;
828;SDS011;396;52.558;13.188;2023-02-28T12:49:16;5.90;;;1.47;;
828;SDS011;396;52.558;13.188;2023-02-28T12:51:47;4.90;;;0.97;;
828;SDS011;396;52.558;13.188;2023-02-28T12:54:17;7.27;;;1.93;;
828;SDS011;396;52.558;13.188;2023-02-28T12:56:53;5.00;;;1.13;;
828;SDS011;396;52.558;13.188;2023-02-28T12:59:27;6.20;;;1.07;;
828;SDS011;396;52.558;13.188;2023-02-28T13:05:17;6.20;;;1.23;;
828;SDS011;396;52.558;13.188;2023-02-28T13:07:58;5.70;;;1.50;;
828;SDS011;396;52.558;13.188;2023-02-28T13:10:40;4.70;;;1.07;;
828;SDS011;396;52.558;13.188;2023-02-28T13:13:13;5.47;;;1.20;;
828;SDS011;396;52.558;13.188;2023-02-28T13:15:57;5.57;;;1.37;;
828;SDS011;396;52.558;13.188;2023-02-28T13:18:33;6.50;;;1.40;;
828;SDS011;396;52.558;13.188;2023-02-28T13:21:04;6.83;;;1.50;;
828;SDS011;396;52.558;13.188;2023-02-28T13:23:40;6.97;;;1.37;;
828;SDS011;396;52.558;13.188;2023-02-28T13:26:28;7.13;;;1.57;;
828;SDS011;396;52.558;13.188;2023-02-28T13:29:39;5.60;;;1.50;;
828;SDS011;396;52.558;13.188;2023-02-28T13:35:15;6.83;;;1.87;;
828;SDS011;396;52.558;13.188;2023-02-28T13:38:12;5.30;;;1.30;;
828;SDS011;396;52.558;13.188;2023-02-28T13:40:48;6.20;;;2.07;;
828;SDS011;396;52.558;13.188;2023-02-28T13:43:16;6.97;;;2.17;;
828;SDS011;396;52.558;13.188;2023-02-28T13:48:38;5.83;;;1.53;;
828;SDS011;396;52.558;13.188;2023-02-28T13:54:06;6.90;;;1.97;;
828;SDS011;396;52.558;13.188;2023-02-28T13:56:48;7.17;;;2.23;;
828;SDS011;396;52.558;13.188;2023-02-28T13:59:23;7.10;;;2.03;;
828;SDS011;396;52.558;13.188;2023-02-28T14:02:01;8.73;;;2.40;;
828;SDS011;396;52.558;13.188;2023-02-28T14:04:49;7.03;;;2.20;;
828;SDS011;396;52.558;13.188;2023-02-28T14:07:27;5.43;;;1.30;;
828;SDS011;396;52.558;13.188;2023-02-28T14:09:58;8.33;;;1.80;;
828;SDS011;396;52.558;13.188;2023-02-28T14:18:23;7.30;;;2.20;;
828;SDS011;396;52.558;13.188;2023-02-28T14:21:09;5.57;;;1.37;;
828;SDS011;396;52.558;13.188;2023-02-28T14:29:55;5.63;;;1.50;;
828;SDS011;396;52.558;13.188;2023-02-28T14:32:32;5.80;;;1.37;;
828;SDS011;396;52.558;13.188;2023-02-28T14:35:03;5.80;;;1.77;;
828;SDS011;396;52.558;13.188;2023-02-28T14:37:45;6.40;;;2.00;;
828;SDS011;396;52.558;13.188;2023-02-28T14:40:15;6.23;;;1.63;;
828;SDS011;396;52.558;13.188;2023-02-28T14:42:46;7.33;;;1.83;;
828;SDS011;396;52.558;13.188;2023-02-28T14:45:17;5.80;;;1.90;;
828;SDS011;396;52.558;13.188;2023-02-28T14:47:45;8.43;;;2.30;;
828;SDS011;396;52.558;13.188;2023-02-28T14:50:17;9.17;;;2.43;;
828;SDS011;396;52.558;13.188;2023-02-28T14:52:45;10.73;;;1.70;;
828;SDS011;396;52.558;13.188;2023-02-28T14:55:13;6.53;;;1.60;;
828;SDS011;396;52.558;13.188;2023-02-28T14:57:50;6.30;;;1.30;;
828;SDS011;396;52.558;13.188;2023-02-28T15:00:21;7.03;;;1.80;;
828;SDS011;396;52.558;13.188;2023-02-28T15:02:50;6.50;;;1.63;;
828;SDS011;396;52.558;13.188;2023-02-28T15:05:27;8.73;;;1.60;;
828;SDS011;396;52.558;13.188;2023-02-28T15:08:04;6.50;;;1.70;;
828;SDS011;396;52.558;13.188;2023-02-28T15:10:33;6.47;;;1.80;;
828;SDS011;396;52.558;13.188;2023-02-28T15:13:00;9.70;;;2.03;;
828;SDS011;396;52.558;13.188;2023-02-28T15:15:33;5.30;;;1.37;;
828;SDS011;396;52.558;13.188;2023-02-28T15:18:06;5.30;;;1.60;;
828;SDS011;396;52.558;13.188;2023-02-28T15:20:38;7.17;;;1.87;;
828;SDS011;396;52.558;13.188;2023-02-28T15:23:06;6.77;;;1.77;;
828;SDS011;396;52.558;13.188;2023-02-28T15:25:33;6.17;;;1.73;;
828;SDS011;396;52.558;13.188;2023-02-28T15:28:00;6.43;;;1.53;;
828;SDS011;396;52.558;13.188;2023-02-28T15:30:28;7.40;;;2.10;;
828;SDS011;396;52.558;13.188;2023-02-28T15:33:07;8.90;;;2.23;;
828;SDS011;396;52.558;13.188;2023-02-28T15:35:44;7.30;;;2.37;;
828;SDS011;396;52.558;13.188;2023-02-28T15:38:15;9.30;;;1.73;;
828;SDS011;396;52.558;13.188;2023-02-28T15:40:44;7.60;;;1.83;;
828;SDS011;396;52.558;13.188;2023-02-28T15:43:22;6.13;;;1.70;;
828;SDS011;396;52.558;13.188;2023-02-28T15:45:51;6.70;;;1.60;;
828;SDS011;396;52.558;13.188;2023-02-28T15:48:22;8.63;;;1.30;;
828;SDS011;396;52.558;13.188;2023-02-28T15:50:51;7.37;;;1.67;;
828;SDS011;396;52.558;13.188;2023-02-28T15:53:22;6.13;;;1.87;;
828;SDS011;396;52.558;13.188;2023-02-28T15:55:52;5.93;;;1.50;;
828;SDS011;396;52.558;13.188;2023-02-28T15:58:22;6.60;;;1.20;;
828;SDS011;396;52.558;13.188;2023-02-28T16:00:59;7.03;;;1.53;;
828;SDS011;396;52.558;13.188;2023-02-28T16:03:34;7.70;;;1.60;;
828;SDS011;396;52.558;13.188;2023-02-28T16:06:09;4.63;;;1.00;;
828;SDS011;396;52.558;13.188;2023-02-28T16:09:03;6.13;;;1.40;;
828;SDS011;396;52.558;13.188;2023-02-28T16:11:33;7.40;;;1.80;;
828;SDS011;396;52.558;13.188;2023-02-28T16:14:01;8.33;;;1.83;;
828;SDS011;396;52.558;13.188;2023-02-28T16:16:28;5.30;;;1.30;;
828;SDS011;396;52.558;13.188;2023-02-28T16:18:55;7.77;;;1.80;;
828;SDS011;396;52.558;13.188;2023-02-28T16:21:25;6.90;;;1.83;;
828;SDS011;396;52.558;13.188;2023-02-28T16:23:52;6.20;;;1.80;;
828;SDS011;396;52.558;13.188;2023-02-28T16:26:21;7.23;;;1.50;;
828;SDS011;396;52.558;13.188;2023-02-28T16:28:51;7.20;;;1.93;;